Time;durP1;ratioP1;P1;durP2;ratioP2;P2;SDS_P1;SDS_P2;PMS_P1;PMS_P2;Temp;Humidity;BMP_temperature;BMP_pressure;BME280_temperature;BME280_humidity;BME280_pressure;Samples;Min_cycle;Max_cycle;Signal;HPM_P1;HPM_P2
2023/04/14 00:01:29;;;;;;;26.15;12.80;;;5.50;99.90;;;;;;5033428;28;20033;-71
2023/04/14 00:03:54;;;;;;;24.98;11.90;;;5.50;99.90;;;;;;5034774;28;20022;-71
2023/04/14 00:06:20;;;;;;;27.50;12.48;;;5.50;99.90;;;;;;5034339;28;20045;-71
2023/04/14 00:08:45;;;;;;;22.17;11.32;;;5.60;99.90;;;;;;5034290;28;20600;-71
2023/04/14 00:11:11;;;;;;;27.00;13.38;;;5.40;99.90;;;;;;5034302;28;20052;-72
2023/04/14 00:13:36;;;;;;;21.90;12.57;;;5.40;99.90;;;;;;5034158;28;20072;-74
2023/04/14 00:16:02;;;;;;;23.25;11.70;;;5.40;99.90;;;;;;5034310;28;20048;-71
2023/04/14 00:18:28;;;;;;;23.65;11.85;;;5.40;99.90;;;;;;5034286;28;20034;-73
2023/04/14 00:20:53;;;;;;;24.92;12.43;;;5.40;99.90;;;;;;5033747;28;20029;-72
2023/04/14 00:23:19;;;;;;;24.80;12.40;;;5.30;99.90;;;;;;5034235;28;20034;-74
2023/04/14 00:25:45;;;;;;;22.17;12.40;;;5.30;99.90;;;;;;5032346;28;20033;-71
2023/04/14 00:28:11;;;;;;;19.35;11.85;;;5.20;99.90;;;;;;5031529;28;20029;-74
2023/04/14 00:30:37;;;;;;;23.85;11.85;;;5.20;99.90;;;;;;5032184;28;20026;-71
2023/04/14 00:33:03;;;;;;;21.63;11.85;;;5.20;99.90;;;;;;5032420;28;20118;-73
2023/04/14 00:35:30;;;;;;;23.33;12.98;;;5.10;99.90;;;;;;5031210;28;20033;-75
2023/04/14 00:37:57;;;;;;;24.80;12.15;;;5.10;99.90;;;;;;5032098;28;20033;-73
2023/04/14 00:40:23;;;;;;;22.52;12.50;;;5.10;99.90;;;;;;5031327;28;20088;-73
2023/04/14 00:42:49;;;;;;;21.10;11.95;;;5.10;99.90;;;;;;5031053;28;20558;-73
2023/04/14 00:45:15;;;;;;;19.05;11.98;;;5.20;99.90;;;;;;5032525;28;20026;-71
2023/04/14 00:47:45;;;;;;;19.40;11.75;;;5.10;99.90;;;;;;5030762;28;20024;-73
2023/04/14 00:50:13;;;;;;;27.23;13.32;;;5.00;99.90;;;;;;5031578;28;20378;-72
2023/04/14 00:52:39;;;;;;;21.90;11.80;;;5.00;99.90;;;;;;5032088;28;20080;-75
2023/04/14 00:55:06;;;;;;;20.85;11.32;;;5.00;99.90;;;;;;5030916;28;20050;-71
2023/04/14 00:57:32;;;;;;;25.58;12.32;;;5.00;99.90;;;;;;5031740;28;20029;-71
2023/04/14 00:59:59;;;;;;;23.77;12.75;;;5.00;99.90;;;;;;5031655;28;20040;-72
2023/04/14 01:02:25;;;;;;;21.08;12.10;;;5.00;99.90;;;;;;5031894;28;20080;-75
2023/04/14 01:04:51;;;;;;;20.80;12.05;;;5.00;99.90;;;;;;5030794;28;20051;-72
2023/04/14 01:07:18;;;;;;;20.33;11.95;;;5.00;99.90;;;;;;5030894;28;20044;-71
2023/04/14 01:09:44;;;;;;;23.98;12.60;;;5.00;99.90;;;;;;5030957;28;20049;-72
2023/04/14 01:12:18;;;;;;;24.08;12.15;;;5.00;99.90;;;;;;5030075;28;20022;-72
2023/04/14 01:14:49;;;;;;;;;;;5.00;99.90;;;;;;5032042;28;20045;-75
2023/04/14 01:17:43;;;;;;;21.02;11.38;;;4.90;99.90;;;;;;5031317;28;20003;-72
2023/04/14 01:20:17;;;;;;;20.10;11.50;;;4.90;99.90;;;;;;5030784;28;20029;-71
2023/04/14 01:23:02;;;;;;;24.33;11.73;;;4.90;99.90;;;;;;5029520;28;20148;-72
2023/04/14 01:25:47;;;;;;;21.77;11.57;;;4.90;99.90;;;;;;5031731;28;20018;-72
2023/04/14 01:28:37;;;;;;;19.80;11.75;;;4.90;99.90;;;;;;5031003;28;20529;-70
2023/04/14 01:31:31;;;;;;;22.92;11.68;;;4.90;99.90;;;;;;5030678;28;20029;-72
2023/04/14 01:34:09;;;;;;;21.83;11.85;;;4.90;99.90;;;;;;5030097;28;20029;-71
2023/04/14 01:36:47;;;;;;;21.02;11.85;;;4.80;99.90;;;;;;5031495;28;20021;-75
2023/04/14 01:39:20;;;;;;;22.60;12.18;;;4.80;99.90;;;;;;5030349;28;20049;-70
2023/04/14 01:41:48;;;;;;;21.40;12.07;;;4.70;99.90;;;;;;5030469;28;20057;-73
2023/04/14 01:44:16;;;;;;;22.05;11.82;;;4.70;99.90;;;;;;5030267;28;20038;-71
2023/04/14 01:46:43;;;;;;;22.00;12.35;;;4.70;99.90;;;;;;5030974;28;20026;-70
2023/04/14 01:49:10;;;;;;;21.52;11.98;;;4.70;99.90;;;;;;5029661;28;20044;-72
2023/04/14 01:51:39;;;;;;;21.00;11.82;;;4.60;99.90;;;;;;5030704;28;20026;-72
2023/04/14 01:54:08;;;;;;;23.17;12.27;;;4.60;99.90;;;;;;5030729;28;20085;-72
2023/04/14 01:56:37;;;;;;;19.90;10.93;;;4.60;99.90;;;;;;5031254;28;20529;-70
2023/04/14 01:59:04;;;;;;;22.73;12.95;;;4.50;99.90;;;;;;5029688;28;20034;-70
2023/04/14 02:01:33;;;;;;;22.10;11.40;;;4.50;99.90;;;;;;5030631;28;20022;-72
2023/04/14 02:04:01;;;;;;;21.75;12.32;;;4.40;99.90;;;;;;5029567;28;20099;-71
2023/04/14 02:06:30;;;;;;;22.08;12.55;;;4.40;99.90;;;;;;5029737;28;20081;-71
2023/04/14 02:09:01;;;;;;;22.90;12.32;;;4.40;99.90;;;;;;5030606;28;20045;-73
2023/04/14 02:11:29;;;;;;;18.83;11.80;;;4.40;99.90;;;;;;5030799;28;20105;-71
2023/04/14 02:13:55;;;;;;;22.95;12.65;;;4.40;99.90;;;;;;5030987;28;20018;-69
2023/04/14 02:16:23;;;;;;;24.20;13.07;;;4.40;99.90;;;;;;5030425;28;20034;-73
2023/04/14 02:18:49;;;;;;;21.27;11.88;;;4.40;99.90;;;;;;5028900;28;20037;-72
2023/04/14 02:21:17;;;;;;;19.13;11.38;;;4.30;99.90;;;;;;5030564;28;20033;-71
2023/04/14 02:23:42;;;;;;;19.63;11.95;;;4.30;99.90;;;;;;5030282;28;20030;-71
2023/04/14 02:26:13;;;;;;;27.63;12.68;;;4.40;99.90;;;;;;5030457;28;20418;-71
2023/04/14 02:28:47;;;;;;;24.75;12.65;;;4.30;99.90;;;;;;5028626;28;20498;-73
2023/04/14 02:31:15;;;;;;;;;;;4.20;99.90;;;;;;5030484;28;20021;-73
2023/04/14 02:33:43;;;;;;;21.08;12.35;;;4.20;99.90;;;;;;5029373;28;19906;-71
2023/04/14 02:36:11;;;;;;;20.63;12.68;;;4.20;99.90;;;;;;5030618;28;20097;-72
2023/04/14 02:38:51;;;;;;;20.35;11.88;;;4.20;99.90;;;;;;5030143;28;20033;-71
2023/04/14 02:41:24;;;;;;;24.25;13.60;;;4.20;99.90;;;;;;5029097;28;20105;-70
2023/04/14 02:43:59;;;;;;;23.00;12.50;;;4.20;99.90;;;;;;5029271;28;20030;-72
2023/04/14 02:46:28;;;;;;;20.52;12.20;;;4.10;99.90;;;;;;5029010;28;20029;-70
2023/04/14 02:48:54;;;;;;;27.73;13.20;;;4.10;99.90;;;;;;5029085;28;20038;-74
2023/04/14 02:51:21;;;;;;;22.85;13.30;;;4.10;99.90;;;;;;5030180;28;20079;-71
2023/04/14 02:53:47;;;;;;;24.35;13.23;;;4.10;99.90;;;;;;5030304;28;20058;-72
2023/04/14 02:56:13;;;;;;;24.55;13.50;;;4.00;99.90;;;;;;5030222;28;20033;-71
2023/04/14 02:58:39;;;;;;;24.25;13.45;;;4.00;99.90;;;;;;5029362;28;20025;-72
2023/04/14 03:01:05;;;;;;;25.65;13.05;;;4.00;99.90;;;;;;5029761;28;20060;-75
2023/04/14 03:03:36;;;;;;;26.90;13.52;;;4.00;99.90;;;;;;5029942;28;20056;-71
2023/04/14 03:06:06;;;;;;;23.75;13.45;;;4.00;99.90;;;;;;5031002;28;20022;-72
2023/04/14 03:08:33;;;;;;;24.27;13.55;;;3.90;99.90;;;;;;5029532;28;20045;-71
2023/04/14 03:11:00;;;;;;;24.77;13.75;;;3.90;99.90;;;;;;5030933;28;20030;-71
2023/04/14 03:13:29;;;;;;;22.45;12.73;;;3.90;99.90;;;;;;5031144;28;20030;-76
2023/04/14 03:15:57;;;;;;;26.30;14.23;;;3.90;99.90;;;;;;5029612;28;20029;-72
2023/04/14 03:18:24;;;;;;;28.38;13.77;;;3.80;99.90;;;;;;5031484;28;20022;-72
2023/04/14 03:20:52;;;;;;;21.50;13.27;;;3.80;99.90;;;;;;5030422;28;20029;-73
2023/04/14 03:23:20;;;;;;;23.58;13.43;;;3.80;99.90;;;;;;5029222;28;20037;-73
2023/04/14 03:25:46;;;;;;;25.13;13.63;;;3.70;99.90;;;;;;5030803;28;20483;-73
2023/04/14 03:28:18;;;;;;;22.17;13.60;;;3.70;99.90;;;;;;5030275;28;20033;-73
2023/04/14 03:30:47;;;;;;;23.92;13.52;;;3.60;99.90;;;;;;5031226;28;20045;-72
2023/04/14 03:33:19;;;;;;;20.90;12.93;;;3.60;99.90;;;;;;5031128;28;20033;-74
2023/04/14 03:35:45;;;;;;;20.95;12.63;;;3.60;99.90;;;;;;5034288;28;20061;-71
2023/04/14 03:38:14;;;;;;;21.52;12.93;;;3.60;99.90;;;;;;5033760;28;20037;-73
2023/04/14 03:40:46;;;;;;;20.92;11.90;;;3.60;99.90;;;;;;5034442;28;20041;-73
2023/04/14 03:43:18;;;;;;;21.45;12.20;;;3.60;99.90;;;;;;5034558;28;20018;-72
2023/04/14 03:45:48;;;;;;;21.45;12.15;;;3.60;99.90;;;;;;5034385;28;20035;-72
2023/04/14 03:48:17;;;;;;;18.70;12.05;;;3.60;99.90;;;;;;5034234;28;20018;-72
2023/04/14 03:50:45;;;;;;;19.30;11.68;;;3.60;99.90;;;;;;5034381;28;20018;-71
2023/04/14 03:53:13;;;;;;;23.02;11.77;;;3.60;99.90;;;;;;5034174;28;20435;-71
2023/04/14 03:55:42;;;;;;;20.80;12.35;;;3.70;99.90;;;;;;5033293;28;20104;-71
2023/04/14 03:58:09;;;;;;;19.33;12.02;;;3.70;99.90;;;;;;5033954;28;20036;-72
2023/04/14 04:00:36;;;;;;;24.50;12.18;;;3.70;99.90;;;;;;5033819;28;20040;-71
2023/04/14 04:03:04;;;;;;;20.73;12.75;;;3.70;99.90;;;;;;5033943;28;20387;-74
2023/04/14 04:05:34;;;;;;;22.23;12.68;;;3.70;99.90;;;;;;5033360;28;20534;-72
2023/04/14 04:08:01;;;;;;;22.33;13.15;;;3.70;99.90;;;;;;5034184;28;20525;-70
2023/04/14 04:10:33;;;;;;;24.25;12.60;;;3.80;99.90;;;;;;5033057;28;20050;-72
2023/04/14 04:13:12;;;;;;;19.85;12.10;;;3.70;99.90;;;;;;5033899;28;20033;-71
2023/04/14 04:15:39;;;;;;;23.02;12.40;;;3.70;99.90;;;;;;5034042;28;20037;-72
2023/04/14 04:18:07;;;;;;;23.02;13.07;;;3.70;99.90;;;;;;5033906;28;20033;-71
2023/04/14 04:20:36;;;;;;;22.30;13.18;;;3.70;99.90;;;;;;5033121;28;20026;-71
2023/04/14 04:23:05;;;;;;;26.08;13.68;;;3.70;99.90;;;;;;5032561;28;20360;-71
2023/04/14 04:25:32;;;;;;;22.58;14.10;;;3.70;99.90;;;;;;5033854;28;20026;-71
2023/04/14 04:28:00;;;;;;;23.45;13.77;;;3.70;99.90;;;;;;5032849;28;20482;-74
2023/04/14 04:30:29;;;;;;;23.30;13.00;;;3.70;99.90;;;;;;5032528;28;20037;-72
2023/04/14 04:32:55;;;;;;;22.15;13.43;;;3.70;99.90;;;;;;5033137;28;20025;-70
2023/04/14 04:35:23;;;;;;;23.13;13.10;;;3.60;99.90;;;;;;5032049;28;20512;-71
2023/04/14 04:37:49;;;;;;;26.23;13.13;;;3.60;99.90;;;;;;5032979;28;20025;-70
2023/04/14 04:40:15;;;;;;;22.80;13.05;;;3.60;99.90;;;;;;5031953;28;20029;-71
2023/04/14 04:42:42;;;;;;;23.63;13.00;;;3.60;99.90;;;;;;5033448;28;20045;-70
2023/04/14 04:45:08;;;;;;;25.13;12.68;;;3.60;99.90;;;;;;5032783;28;20032;-71
2023/04/14 04:47:34;;;;;;;34.80;13.57;;;3.60;99.90;;;;;;5032947;28;20022;-72
2023/04/14 04:49:59;;;;;;;22.63;13.77;;;3.50;99.90;;;;;;5032915;28;20069;-69
2023/04/14 04:52:25;;;;;;;21.38;13.07;;;3.50;99.90;;;;;;5033237;28;20040;-71
2023/04/14 04:54:51;;;;;;;20.10;12.65;;;3.50;99.90;;;;;;5030123;28;20049;-71
2023/04/14 04:57:17;;;;;;;22.85;13.30;;;3.50;99.90;;;;;;5031104;28;20459;-70
2023/04/14 04:59:43;;;;;;;20.98;12.70;;;3.50;99.90;;;;;;5032704;28;20524;-71
2023/04/14 05:02:09;;;;;;;23.17;13.85;;;3.50;99.90;;;;;;5032672;28;20049;-70
2023/04/14 05:04:35;;;;;;;27.10;13.43;;;3.50;99.90;;;;;;5032481;28;20021;-71
2023/04/14 05:07:02;;;;;;;29.52;14.98;;;3.50;99.90;;;;;;5031759;28;20033;-70
2023/04/14 05:09:28;;;;;;;24.60;13.93;;;3.50;99.90;;;;;;5030543;28;20116;-71
2023/04/14 05:11:53;;;;;;;24.35;13.93;;;3.50;99.90;;;;;;5032791;28;20072;-73
2023/04/14 05:14:19;;;;;;;23.95;14.35;;;3.50;99.90;;;;;;5032685;28;20509;-70
2023/04/14 05:16:46;;;;;;;26.52;13.77;;;3.50;99.90;;;;;;5032563;28;20615;-71
2023/04/14 05:19:11;;;;;;;23.80;13.63;;;3.60;99.90;;;;;;5032819;28;20028;-70
2023/04/14 05:21:37;;;;;;;26.75;14.18;;;3.60;99.90;;;;;;5031855;28;20096;-70
2023/04/14 05:24:03;;;;;;;24.60;14.48;;;3.70;99.90;;;;;;5032377;28;20459;-69
2023/04/14 05:26:28;;;;;;;25.67;14.50;;;3.70;99.90;;;;;;5029929;28;20073;-70
2023/04/14 05:28:54;;;;;;;26.55;14.18;;;3.70;99.90;;;;;;5032506;28;20026;-70
2023/04/14 05:31:19;;;;;;;28.60;14.38;;;3.80;99.90;;;;;;5029850;28;20446;-72
2023/04/14 05:33:45;;;;;;;32.05;15.18;;;3.90;99.90;;;;;;5029152;28;20025;-69
2023/04/14 05:36:10;;;;;;;26.27;15.07;;;3.90;99.90;;;;;;5032109;28;20371;-70
2023/04/14 05:38:40;;;;;;;27.35;14.65;;;3.90;99.90;;;;;;5029141;28;20041;-70
2023/04/14 05:41:06;;;;;;;24.70;14.55;;;4.00;99.90;;;;;;5027483;28;20033;-70
2023/04/14 05:43:32;;;;;;;29.60;15.20;;;4.00;99.90;;;;;;5030173;28;20030;-70
2023/04/14 05:45:59;;;;;;;29.63;15.35;;;4.00;99.90;;;;;;5032444;28;20042;-71
2023/04/14 05:48:27;;;;;;;25.02;14.68;;;4.10;99.90;;;;;;5029524;28;20037;-70
2023/04/14 05:50:53;;;;;;;24.70;14.65;;;4.10;99.90;;;;;;5028160;28;20072;-70
2023/04/14 05:53:19;;;;;;;27.77;14.27;;;4.20;99.90;;;;;;5029498;28;20026;-70
2023/04/14 05:55:49;;;;;;;25.45;14.23;;;4.30;99.90;;;;;;5028335;28;20045;-70
2023/04/14 05:58:15;;;;;;;30.15;15.15;;;4.30;99.90;;;;;;5031494;28;20081;-71
2023/04/14 06:00:41;;;;;;;27.92;14.82;;;4.40;99.90;;;;;;5030781;28;20121;-70
2023/04/14 06:03:07;;;;;;;22.83;14.23;;;4.50;99.90;;;;;;5030606;28;20110;-72
2023/04/14 06:05:33;;;;;;;26.40;13.75;;;4.50;99.90;;;;;;5030986;28;20033;-72
2023/04/14 06:07:58;;;;;;;30.48;14.43;;;4.60;99.90;;;;;;5029823;28;20034;-69
2023/04/14 06:10:24;;;;;;;29.20;15.05;;;4.60;99.90;;;;;;5031484;28;20045;-70
2023/04/14 06:12:50;;;;;;;28.92;15.55;;;4.70;99.90;;;;;;5031568;28;20034;-69
2023/04/14 06:15:15;;;;;;;29.27;15.23;;;4.70;99.90;;;;;;5030707;28;20124;-69
2023/04/14 06:17:41;;;;;;;23.58;12.98;;;4.80;99.90;;;;;;5030629;28;20056;-71
2023/04/14 06:20:07;;;;;;;26.00;12.93;;;4.80;99.90;;;;;;5031330;28;20041;-69
2023/04/14 06:22:33;;;;;;;25.08;13.02;;;5.00;99.90;;;;;;5030095;28;20092;-70
2023/04/14 06:24:59;;;;;;;27.50;13.15;;;5.00;99.90;;;;;;5032076;28;20466;-70
2023/04/14 06:27:24;;;;;;;24.67;12.60;;;5.20;99.90;;;;;;5028706;28;20026;-69
2023/04/14 06:29:51;;;;;;;20.88;12.15;;;5.30;99.90;;;;;;5028590;28;20121;-70
2023/04/14 06:32:17;;;;;;;23.27;11.27;;;5.40;99.90;;;;;;5029820;28;20061;-69
2023/04/14 06:34:43;;;;;;;25.65;12.73;;;5.40;99.90;;;;;;5030219;28;20034;-70
2023/04/14 06:37:09;;;;;;;27.95;11.60;;;5.50;99.90;;;;;;5030352;28;20032;-71
2023/04/14 06:39:35;;;;;;;25.38;12.45;;;5.60;99.90;;;;;;5032137;28;20474;-71
2023/04/14 06:42:01;;;;;;;25.15;13.38;;;5.70;99.90;;;;;;5030553;28;20110;-72
2023/04/14 06:44:27;;;;;;;24.15;12.35;;;5.80;99.90;;;;;;5028844;28;20088;-72
2023/04/14 06:46:52;;;;;;;23.52;12.55;;;5.90;99.90;;;;;;5031729;28;20017;-70
2023/04/14 06:49:20;;;;;;;21.50;11.52;;;6.10;99.90;;;;;;5029615;28;20026;-70
2023/04/14 06:51:45;;;;;;;20.85;11.98;;;6.00;99.90;;;;;;5026465;28;20382;-70
2023/04/14 06:54:11;;;;;;;18.83;10.27;;;6.20;99.90;;;;;;5030394;28;20021;-69
2023/04/14 06:56:36;;;;;;;20.92;10.43;;;6.30;99.90;;;;;;5024522;28;20069;-72
2023/04/14 06:59:02;;;;;;;20.13;11.30;;;6.30;99.90;;;;;;5028836;28;20494;-70
2023/04/14 07:01:27;;;;;;;17.27;9.52;;;6.30;99.90;;;;;;5027514;28;20034;-72
2023/04/14 07:03:53;;;;;;;19.10;11.23;;;6.40;99.90;;;;;;5030424;28;20026;-71
2023/04/14 07:06:18;;;;;;;20.65;10.60;;;6.50;99.90;;;;;;5030489;28;20025;-72
2023/04/14 07:08:45;;;;;;;19.55;9.90;;;6.60;99.90;;;;;;5029921;28;20073;-71
2023/04/14 07:11:11;;;;;;;19.10;10.50;;;6.70;99.90;;;;;;5035342;28;20018;-69
2023/04/14 07:13:37;;;;;;;15.95;9.98;;;6.80;99.90;;;;;;5033275;28;20029;-71
2023/04/14 07:16:06;;;;;;;18.52;10.38;;;6.90;99.90;;;;;;5023768;28;20128;-72
2023/04/14 07:18:31;;;;;;;17.23;9.93;;;7.00;99.90;;;;;;5033990;28;20037;-70
2023/04/14 07:20:59;;;;;;;21.75;10.25;;;7.10;99.90;;;;;;5028310;28;20037;-71
2023/04/14 07:23:26;;;;;;;17.55;9.00;;;7.30;99.90;;;;;;5032120;28;20038;-74
2023/04/14 07:25:53;;;;;;;15.73;9.40;;;7.30;99.90;;;;;;5027128;28;20030;-72
2023/04/14 07:28:20;;;;;;;17.48;8.05;;;7.50;99.90;;;;;;5032029;28;20049;-70
2023/04/14 07:30:47;;;;;;;17.98;8.50;;;7.60;99.90;;;;;;5031897;28;20026;-71
2023/04/14 07:33:13;;;;;;;13.75;8.60;;;7.70;99.90;;;;;;5034910;28;20037;-71
2023/04/14 07:35:39;;;;;;;13.45;8.73;;;7.80;99.90;;;;;;5034452;28;20073;-70
2023/04/14 07:38:05;;;;;;;15.75;8.82;;;7.90;99.90;;;;;;5033491;28;20026;-70
2023/04/14 07:40:30;;;;;;;15.15;7.80;;;8.10;99.90;;;;;;5034256;28;20026;-71
2023/04/14 07:42:56;;;;;;;17.90;8.50;;;8.20;99.90;;;;;;5032376;28;20430;-70
2023/04/14 07:45:22;;;;;;;15.85;8.52;;;8.30;99.90;;;;;;5032536;28;20048;-72
2023/04/14 07:47:48;;;;;;;14.80;7.25;;;8.40;99.90;;;;;;5033726;28;20042;-70
2023/04/14 07:50:13;;;;;;;13.80;7.28;;;8.50;99.90;;;;;;5029956;28;20028;-70
2023/04/14 07:52:39;;;;;;;14.80;7.25;;;8.70;99.90;;;;;;5033606;28;20026;-72
2023/04/14 07:55:05;;;;;;;14.70;6.45;;;8.80;99.90;;;;;;5029350;28;20122;-72
2023/04/14 07:57:33;;;;;;;14.90;5.72;;;8.90;99.90;;;;;;5031368;28;20037;-72
2023/04/14 07:59:59;;;;;;;11.88;6.63;;;9.00;99.90;;;;;;5033802;28;20112;-71
2023/04/14 08:02:24;;;;;;;13.30;7.20;;;9.00;99.90;;;;;;5035148;28;20104;-71
2023/04/14 08:04:50;;;;;;;12.27;6.72;;;9.20;99.90;;;;;;5034479;28;20030;-71
2023/04/14 08:07:15;;;;;;;11.23;6.65;;;9.40;99.90;;;;;;5034821;28;20036;-72
2023/04/14 08:09:42;;;;;;;13.25;6.45;;;9.30;99.90;;;;;;5034088;28;20045;-71
2023/04/14 08:12:07;;;;;;;10.95;5.65;;;9.40;99.90;;;;;;5033094;28;20032;-73
2023/04/14 08:14:33;;;;;;;11.55;6.00;;;9.40;99.90;;;;;;5034170;28;20038;-71
2023/04/14 08:16:59;;;;;;;11.20;5.90;;;9.50;99.90;;;;;;5031949;28;20030;-73
2023/04/14 08:19:24;;;;;;;10.85;6.35;;;9.70;99.90;;;;;;5034423;28;20041;-71
2023/04/14 08:21:51;;;;;;;12.00;5.63;;;9.90;99.90;;;;;;5033912;28;20040;-71
2023/04/14 08:24:16;;;;;;;9.98;5.57;;;10.10;99.90;;;;;;5034193;28;20032;-69
2023/04/14 08:26:42;;;;;;;11.32;5.45;;;10.40;99.90;;;;;;5033268;28;21071;-69
2023/04/14 08:29:07;;;;;;;9.07;4.43;;;10.60;99.90;;;;;;5034036;28;20104;-71
2023/04/14 08:31:33;;;;;;;11.63;4.40;;;10.90;99.90;;;;;;5033792;28;20493;-70
2023/04/14 08:33:59;;;;;;;7.45;4.03;;;11.10;99.90;;;;;;5033885;28;20073;-71
2023/04/14 08:36:26;;;;;;;10.93;4.28;;;11.30;99.90;;;;;;5032431;28;20049;-70
2023/04/14 08:38:52;;;;;;;7.72;3.17;;;11.50;99.90;;;;;;5034211;28;20021;-71
2023/04/14 08:41:19;;;;;;;6.70;3.50;;;11.70;99.90;;;;;;5031082;28;20067;-70
2023/04/14 08:43:45;;;;;;;7.45;4.20;;;11.80;99.90;;;;;;5031219;28;20051;-71
2023/04/14 08:46:13;;;;;;;9.13;4.10;;;12.10;99.90;;;;;;5032153;28;20112;-72
2023/04/14 08:48:39;;;;;;;8.82;4.35;;;12.20;99.90;;;;;;5032963;28;20029;-71
2023/04/14 08:51:20;;;;;;;12.75;5.70;;;12.40;99.90;;;;;;5031498;28;20026;-71
2023/04/14 08:53:47;;;;;;;7.85;3.25;;;12.60;99.90;;;;;;5034099;28;20029;-69
2023/04/14 08:56:16;;;;;;;6.40;3.28;;;12.80;99.90;;;;;;5033138;28;20486;-72
2023/04/14 08:58:41;;;;;;;9.88;3.65;;;13.00;99.90;;;;;;5032003;28;20471;-72
2023/04/14 09:01:08;;;;;;;8.15;3.28;;;13.10;99.90;;;;;;5032592;28;20026;-71
2023/04/14 09:03:37;;;;;;;7.82;3.80;;;13.20;99.90;;;;;;5030054;28;20033;-71
2023/04/14 09:06:04;;;;;;;7.45;3.50;;;13.40;99.90;;;;;;5031968;28;20387;-69
2023/04/14 09:08:33;;;;;;;7.60;3.15;;;13.50;99.90;;;;;;5032840;28;20054;-71
2023/04/14 09:11:02;;;;;;;8.52;3.78;;;13.60;99.90;;;;;;5032149;28;20085;-72
2023/04/14 09:13:29;;;;;;;5.35;3.20;;;13.70;99.90;;;;;;5030201;28;20026;-73
2023/04/14 09:15:55;;;;;;;9.25;2.75;;;13.70;99.90;;;;;;5032051;28;20099;-72
2023/04/14 09:18:21;;;;;;;7.53;2.78;;;13.80;99.90;;;;;;5032509;28;20025;-72
2023/04/14 09:20:47;;;;;;;8.45;3.03;;;13.80;99.90;;;;;;5032671;28;20625;-71
2023/04/14 09:23:13;;;;;;;7.07;2.50;;;13.90;99.90;;;;;;5029317;28;20041;-72
2023/04/14 09:25:39;;;;;;;8.65;2.47;;;14.00;99.90;;;;;;5026819;28;20037;-73
2023/04/14 09:28:05;;;;;;;7.10;2.25;;;14.20;99.90;;;;;;5029389;28;20057;-71
2023/04/14 09:30:31;;;;;;;6.13;2.63;;;14.30;99.90;;;;;;5029774;28;20041;-70
2023/04/14 09:32:57;;;;;;;9.30;2.95;;;14.30;99.90;;;;;;5025893;28;20029;-72
2023/04/14 09:35:41;;;;;;;6.18;2.67;;;14.50;99.90;;;;;;5030222;28;20048;-72
2023/04/14 09:38:06;;;;;;;7.15;2.65;;;14.70;99.90;;;;;;5027058;28;20077;-72
2023/04/14 09:40:33;;;;;;;7.85;2.50;;;14.90;99.90;;;;;;5019206;28;20041;-74
2023/04/14 09:42:59;;;;;;;7.97;2.47;;;15.10;99.90;;;;;;5028149;28;20053;-73
2023/04/14 09:45:43;;;;;;;5.82;2.10;;;15.20;99.90;;;;;;5032467;28;20115;-72
2023/04/14 09:48:12;;;;;;;9.73;2.63;;;15.20;99.90;;;;;;5031979;28;20036;-72
2023/04/14 09:51:08;;;;;;;7.10;2.17;;;15.20;99.90;;;;;;5032350;28;20057;-72
2023/04/14 09:53:39;;;;;;;8.02;2.25;;;15.10;99.90;;;;;;5030339;28;20053;-73
2023/04/14 09:56:11;;;;;;;9.00;1.85;;;15.20;99.90;;;;;;5032142;28;20040;-72
2023/04/14 09:58:42;;;;;;;7.50;1.90;;;15.40;99.90;;;;;;5031390;28;20033;-72
2023/04/14 10:01:16;;;;;;;6.65;1.63;;;15.50;99.90;;;;;;5031383;28;20125;-72
2023/04/14 10:03:48;;;;;;;6.45;1.67;;;15.70;99.90;;;;;;5031320;28;20083;-72
2023/04/14 10:06:15;;;;;;;5.35;2.10;;;15.90;99.90;;;;;;5027971;28;20029;-71
2023/04/14 10:08:43;;;;;;;7.45;2.60;;;15.80;99.90;;;;;;5031473;28;20044;-72
2023/04/14 10:11:23;;;;;;;5.50;1.40;;;15.90;99.90;;;;;;5032061;28;20028;-71
2023/04/14 10:13:56;;;;;;;6.75;1.42;;;16.00;99.90;;;;;;5026986;28;20033;-71
2023/04/14 10:16:22;;;;;;;8.23;1.73;;;16.10;99.90;;;;;;5027673;28;20033;-71
2023/04/14 10:18:49;;;;;;;5.13;1.67;;;16.40;99.90;;;;;;5032265;28;20090;-71
2023/04/14 10:21:16;;;;;;;8.90;1.45;;;16.70;99.90;;;;;;5031817;28;20129;-72
2023/04/14 10:23:42;;;;;;;5.85;1.75;;;16.80;99.90;;;;;;5030853;28;20049;-71
2023/04/14 10:26:10;;;;;;;5.53;1.92;;;17.00;99.90;;;;;;5030251;28;20017;-71
2023/04/14 10:29:00;;;;;;;5.95;1.45;;;16.80;99.90;;;;;;5029612;28;20451;-73
2023/04/14 10:31:31;;;;;;;7.50;1.58;;;16.30;99.90;;;;;;5032207;28;20025;-72
2023/04/14 10:33:57;;;;;;;8.07;1.67;;;15.90;99.90;;;;;;5031403;28;20026;-72
2023/04/14 10:36:28;;;;;;;9.55;1.80;;;15.50;99.90;;;;;;5029966;28;20096;-72
2023/04/14 10:39:04;;;;;;;6.00;1.55;;;15.30;99.90;;;;;;5028243;28;20030;-72
2023/04/14 10:41:54;;;;;;;6.80;1.40;;;15.20;99.90;;;;;;5028781;28;20029;-72
2023/04/14 10:44:27;;;;;;;11.68;1.80;;;15.20;99.90;;;;;;5033303;28;20125;-72
2023/04/14 10:46:55;;;;;;;6.60;1.60;;;15.70;99.90;;;;;;5034053;28;20037;-72
2023/04/14 10:49:32;;;;;;;7.38;1.60;;;16.10;99.90;;;;;;5033530;28;20029;-72
2023/04/14 10:52:04;;;;;;;9.73;1.85;;;16.60;99.90;;;;;;5035123;28;20048;-71
2023/04/14 10:54:50;;;;;;;6.53;1.52;;;16.80;99.90;;;;;;5036007;28;20089;-71
2023/04/14 10:57:17;;;;;;;6.82;1.90;;;17.10;99.90;;;;;;5033663;28;20049;-72
2023/04/14 10:59:46;;;;;;;6.78;1.73;;;17.40;99.90;;;;;;5034761;28;20041;-71
2023/04/14 11:02:52;;;;;;;7.28;1.90;;;17.60;99.90;;;;;;5031009;28;20113;-71
2023/04/14 11:05:20;;;;;;;5.90;1.77;;;17.90;99.90;;;;;;5028900;28;20040;-72
2023/04/14 11:07:48;;;;;;;6.75;1.77;;;17.90;99.90;;;;;;5033081;28;20025;-72
2023/04/14 11:10:23;;;;;;;6.53;1.67;;;17.50;99.90;;;;;;5034658;28;20053;-72
2023/04/14 11:13:02;;;;;;;8.30;1.73;;;17.00;99.90;;;;;;5033910;28;20040;-72
2023/04/14 11:16:01;;;;;;;9.23;1.77;;;16.60;99.90;;;;;;5035408;28;20089;-71
2023/04/14 11:18:31;;;;;;;8.68;1.98;;;16.40;99.90;;;;;;5031322;28;20033;-71
2023/04/14 11:21:07;;;;;;;7.32;1.60;;;16.70;99.90;;;;;;5036014;28;21435;-71
2023/04/14 11:23:34;;;;;;;6.15;1.80;;;17.20;99.90;;;;;;5034451;28;20082;-72
2023/04/14 11:26:00;;;;;;;10.20;1.90;;;17.60;99.90;;;;;;5034577;28;20040;-73
2023/04/14 11:28:33;;;;;;;5.13;1.60;;;17.90;99.90;;;;;;5035586;28;20080;-70
2023/04/14 11:31:00;;;;;;;7.63;1.88;;;18.20;99.90;;;;;;5034957;28;20049;-71
2023/04/14 11:33:30;;;;;;;7.70;2.05;;;18.40;99.90;;;;;;5034891;28;20079;-72
2023/04/14 11:35:57;;;;;;;6.72;1.65;;;18.60;99.90;;;;;;5035087;28;20080;-70
2023/04/14 11:38:23;;;;;;;7.80;1.77;;;18.90;99.90;;;;;;5034783;28;20056;-70
2023/04/14 11:40:52;;;;;;;11.88;2.25;;;19.20;99.90;;;;;;5032647;28;20053;-71
2023/04/14 11:43:19;;;;;;;7.00;2.35;;;19.40;99.90;;;;;;5034144;28;20037;-72
2023/04/14 11:45:46;;;;;;;8.30;1.95;;;19.60;99.90;;;;;;5033717;28;20025;-72
2023/04/14 11:48:14;;;;;;;6.35;1.95;;;19.70;99.90;;;;;;5034436;28;20067;-72
2023/04/14 11:50:41;;;;;;;7.05;2.08;;;19.80;99.90;;;;;;5033024;28;20032;-71
2023/04/14 11:53:09;;;;;;;9.68;2.20;;;19.70;99.90;;;;;;5034309;28;20398;-71
2023/04/14 11:55:34;;;;;;;7.88;2.08;;;19.50;99.90;;;;;;5033960;28;20037;-72
2023/04/14 11:58:01;;;;;;;9.20;1.90;;;19.30;99.90;;;;;;5034638;28;20382;-71
2023/04/14 12:00:28;;;;;;;7.50;2.42;;;19.30;99.90;;;;;;5032659;28;20041;-72
2023/04/14 12:02:56;;;;;;;7.82;2.70;;;19.00;99.90;;;;;;5034589;28;20030;-71
2023/04/14 12:05:29;;;;;;;12.27;2.63;;;18.70;99.90;;;;;;5033732;28;20021;-71
2023/04/14 12:07:58;;;;;;;10.70;2.53;;;18.40;99.90;;;;;;5033269;28;20098;-72
2023/04/14 12:10:25;;;;;;;9.10;2.40;;;18.00;99.90;;;;;;5034147;28;20045;-73
2023/04/14 12:13:05;;;;;;;7.32;2.30;;;17.70;99.90;;;;;;5033587;28;20090;-72
2023/04/14 12:15:32;;;;;;;6.63;2.17;;;17.70;99.90;;;;;;5034496;28;20045;-72
2023/04/14 12:18:01;;;;;;;7.50;2.58;;;17.90;99.90;;;;;;5033703;28;20073;-73
2023/04/14 12:20:32;;;;;;;8.82;2.42;;;17.90;99.90;;;;;;5034264;28;20022;-73
2023/04/14 12:23:04;;;;;;;8.60;2.50;;;17.70;99.90;;;;;;5032357;28;20056;-73
2023/04/14 12:25:33;;;;;;;7.07;2.88;;;17.60;99.90;;;;;;5032854;28;20079;-73
2023/04/14 12:28:05;;;;;;;9.60;2.72;;;17.40;99.90;;;;;;5032657;28;20026;-73
2023/04/14 12:30:32;;;;;;;9.15;2.55;;;17.20;99.90;;;;;;5032948;28;20422;-73
2023/04/14 12:32:57;;;;;;;6.82;2.20;;;17.10;99.90;;;;;;5033743;28;20116;-73
2023/04/14 12:35:23;;;;;;;10.45;2.58;;;17.00;99.90;;;;;;5033941;28;20072;-73
2023/04/14 12:37:49;;;;;;;11.73;3.20;;;17.10;99.90;;;;;;5033916;28;20030;-73
2023/04/14 12:40:16;;;;;;;7.50;2.60;;;16.90;99.90;;;;;;5033768;28;20017;-73
2023/04/14 12:42:47;;;;;;;11.82;3.25;;;16.70;99.90;;;;;;5032959;28;20493;-71
2023/04/14 12:45:13;;;;;;;8.40;2.50;;;16.70;99.90;;;;;;5032157;28;20022;-72
2023/04/14 12:47:39;;;;;;;8.40;2.47;;;16.50;99.90;;;;;;5032841;28;20113;-73